Weather observations for the past three days for
Caro, Tuscola Area Airport
Imperial (Metric)
Date Time (edt) Wind (mph) Vis. (mi.) Weather Sky Cond. Temperature (ºF) Relative Humidity Wind Chill (°F) Heat Index (°F) Pressure Precipitation (in)
Air Dwpt 6 hour altimeter (in) sea level (mb) 1 hr 3 hr 6 hr
Max. Min.
09 07:35 S 9 10.00 Light Drizzle BKN100 50 46.4 88% 47 29.61 0.0
09 07:15 S 7 10.00 Mostly Cloudy BKN110 48.2 44.6 87% 46 29.62 0.0
09 06:55 S 7 10.00 A Few Clouds FEW110 46.4 42.8 87% 43 29.62 0.0
09 06:35 S 3 10.00 Fair CLR 42.8 37.4 81% 29.62 0.0
09 06:15 S 3 10.00 Fair CLR 41 35.6 81% 29.63 0.0
09 05:55 SW 3 10.00 A Few Clouds FEW110 42.8 33.8 71% 29.64 0.0
09 05:35 S 3 10.00 Partly Cloudy SCT120 39.2 33.8 81% 29.65 0.0
09 05:15 S 1 10.00 Partly Cloudy SCT120 37.4 33.8 87% 29.65 0.0
09 04:55 Calm 10.00 Fair CLR 37.4 33.8 87% 29.66 0.0
09 04:35 SW 1 10.00 Fair CLR 39.2 33.8 81% 29.66 0.0
09 04:15 W 1 10.00 Fair CLR 39.2 33.8 81% 29.66 0.0
09 03:55 SE 2 10.00 Fair CLR 41 35.6 81% 29.66 0.0
09 03:35 S 2 10.00 Fair CLR 41 35.6 81% 29.67 0.0
09 03:15 S 2 10.00 Fair CLR 39.2 35.6 87% 29.67 0.0
09 02:55 SW 1 10.00 Fair CLR 39.2 35.6 87% 29.68 0.0
09 02:35 Calm 10.00 Fair CLR 37.4 35.6 93% 29.68 0.0
09 02:15 Calm 10.00 Fair CLR 39.2 35.6 87% 29.68 0.0
09 01:55 E 1 10.00 Fair CLR 39.2 35.6 59.7 38.1 87% 29.69 0.0
09 01:35 E 2 10.00 Fair CLR 39.2 33.8 81% 29.69 0.0
09 01:15 Vrbl 1 10.00 Fair CLR 41 35.6 81% 29.7 0.0
09 00:55 Calm 10.00 Fair CLR 41 35.6 81% 29.7 0.0
09 00:35 E 1 10.00 Fair CLR 41 35.6 81% 29.7 0.0
09 00:15 SE 1 10.00 Fair CLR 44.6 35.6 71% 29.71 0.0
08 23:55 NE 1 10.00 Fair CLR 44.6 37.4 76% 29.71 0.0
08 23:35 Calm 10.00 Fair CLR 46.4 37.4 71% 29.71 0.0
08 23:15 S 1 10.00 Fair CLR 46.4 35.6 66% 29.72 0.0
08 22:55 SW 1 10.00 Fair CLR 46.4 37.4 71% 29.72 0.0
08 22:35 W 1 10.00 Fair CLR 48.2 35.6 62% 29.73 0.0
08 22:15 Calm 10.00 Fair CLR 50 35.6 58% 29.73 0.0
08 21:55 S 1 10.00 Fair CLR 51.8 35.6 54% 29.72 0.0
08 21:35 SE 1 10.00 Fair CLR 51.8 39.2 62% 29.72 0.0
08 21:15 Calm 10.00 Fair CLR 53.6 35.6 51% 29.72 0.0
08 20:55 S 2 10.00 Fair CLR 55.4 30.2 38% 29.72 0.0
08 20:35 SW 3 10.00 Fair CLR 57.2 30.2 36% 29.71 0.0
08 20:15 SW 6 10.00 Fair CLR 59 30.2 34% 29.71 0.0
08 19:55 SW 5 10.00 Fair CLR 59 30.2 63.7 58.5 34% 29.71 0.0
08 19:35 W 5 10.00 Fair CLR 59 26.6 29% 29.71 0.0
08 19:15 W 8 10.00 Fair CLR 60.8 24.8 25% 29.72 0.0
08 18:55 W 7 10.00 Fair CLR 60.8 28.4 29% 29.72 0.0
08 18:35 SW 9 10.00 A Few Clouds FEW090 60.8 26.6 27% 29.72 0.0
08 18:15 SW 12 G 18 10.00 A Few Clouds FEW090 62.6 24.8 24% 29.72 0.0
08 17:55 W 9 10.00 A Few Clouds FEW090 62.6 26.6 25% 29.73 0.0
08 17:35 SW 7 G 20 10.00 Fair CLR 62.6 26.6 25% 29.72 0.0
08 17:15 W 13 G 24 10.00 Fair CLR 62.6 26.6 25% 29.73 0.0
08 16:55 SW 15 G 18 10.00 Fair CLR 62.6 26.6 25% 29.73 0.0
08 16:35 SW 8 10.00 Fair CLR 62.6 26.6 25% 29.74 0.0
08 16:15 W 9 G 17 10.00 Fair CLR 62.6 26.6 25% 29.75 0.0
08 15:55 SW 8 10.00 Fair CLR 62.6 26.6 25% 29.75 0.0
08 15:35 W 7 G 20 10.00 A Few Clouds FEW085 62.6 26.6 25% 29.76 0.0
08 15:15 S 13 G 17 10.00 A Few Clouds FEW085 60.8 26.6 27% 29.77 0.0
08 14:55 SW 9 G 17 10.00 Fair CLR 60.8 26.6 27% 29.78 0.0
08 14:35 Vrbl 3 10.00 A Few Clouds FEW080 60.8 28.4 29% 29.79 0.0
08 14:15 SW 6 G 18 10.00 Fair CLR 59 24.8 27% 29.79 0.0
08 13:55 W 13 G 17 10.00 Fair CLR 59 24.8 60.3 38.7 27% 29.8 0.0
08 13:35 NW 12 G 21 10.00 Fair CLR 59 26.6 29% 29.81 0.0
08 13:15 W 5 G 16 10.00 Fair CLR 57.2 24.8 29% 29.82 0.0
08 12:55 SW 8 G 17 10.00 Fair CLR 59 24.8 27% 29.83 0.0
08 12:35 W 7 G 16 10.00 Fair CLR 57.2 26.6 31% 29.83 0.0
08 12:15 W 7 10.00 Fair CLR 57.2 26.6 31% 29.84 0.0
08 11:55 Vrbl 7 10.00 Fair CLR 57.2 26.6 31% 29.84 0.0
08 11:35 SW 12 10.00 Fair CLR 55.4 26.6 33% 29.85 0.0
08 11:15 W 8 10.00 Fair CLR 55.4 28.4 36% 29.85 0.0
08 10:55 W 8 10.00 Fair CLR 55.4 26.6 33% 29.86 0.0
08 10:35 W 7 10.00 Fair CLR 53.6 30.2 41% 29.86 0.0
08 10:15 Vrbl 7 10.00 Fair CLR 53.6 32 44% 29.86 0.0
08 09:55 Vrbl 6 10.00 Fair CLR 51.8 32 47% 29.87 0.0
08 09:35 SW 7 10.00 Fair CLR 50 33.8 54% 48 29.87 0.0
08 09:15 SW 7 10.00 Fair CLR 48.2 33.8 58% 46 29.87 0.0
08 08:55 SW 8 10.00 Fair CLR 48.2 37.4 66% 45 29.87 0.0
08 08:35 SW 6 10.00 Fair CLR 44.6 37.4 76% 42 29.87 0.0
08 08:15 SW 3 10.00 Fair CLR 42.8 37.4 81% 29.86 0.0
08 07:56 SW 2 10.00 Fair CLR 39.2 37.4 93% 29.86 0.0
08 07:35 S 1 10.00 Fair CLR 33.8 33.8 100% 29.85 0.0
08 07:15 Calm 5.00 Fog/Mist CLR 32 32 100% 29.86 0.0
08 06:55 E 1 1.75 Fog/Mist CLR 32 32 100% 29.85 0.0
08 06:35 Calm 0.50 Freezing Fog VV005 32 32 100% 29.85 0.0
08 06:15 Calm 0.75 Fog/Mist VV005 30.2 30.2 100% 29.85 0.0
08 05:55 SW 1 7.00 Fair CLR 32 32 100% 29.85 0.0
08 05:35 SW 2 10.00 Fair CLR 33.8 33.8 100% 29.86 0.0
08 05:15 SW 3 9.00 Fair CLR 33.8 33.8 100% 29.86 0.0
08 04:55 S 2 7.00 Fog/Mist CLR 33.8 33.8 100% 29.86 0.0
08 04:35 S 2 10.00 Fair CLR 33.8 33.8 100% 29.85 0.0
08 04:15 Calm 10.00 Fair CLR 35.6 33.8 93% 29.85 0.0
08 03:55 SW 1 10.00 A Few Clouds FEW075 37.4 33.8 87% 29.86 0.0
08 03:35 W 2 10.00 Partly Cloudy SCT075 SCT090 39.2 33.8 81% 29.86 0.0
08 03:15 W 3 10.00 Mostly Cloudy BKN090 41 35.6 81% 29.86 0.0
08 02:55 W 5 10.00 Mostly Cloudy BKN090 41 35.6 81% 38 29.86 0.0
08 02:35 SW 6 10.00 Overcast OVC100 41 35.6 81% 38 29.85 0.0
08 02:15 SW 5 10.00 Overcast SCT060 BKN070 OVC090 41 35.6 81% 38 29.85 0.0
08 01:55 SW 5 10.00 Overcast BKN060 BKN070 OVC085 42.8 35.6 49.8 42.3 76% 41 29.86 0.0
08 01:35 W 8 10.00 Overcast BKN060 BKN070 OVC090 44.6 33.8 66% 41 29.86 0.0
08 01:15 W 7 10.00 Light Rain SCT060 SCT070 BKN080 42.8 35.6 76% 39 29.86 0.0
08 00:55 NW 12 G 22 10.00 Light Rain FEW048 BKN060 BKN095 44.6 33.8 66% 39 29.87 0.0
08 00:35 SW 3 10.00 Overcast BKN060 OVC095 42.8 35.6 76% 29.86 0.0
08 00:15 SW 7 10.00 Overcast SCT060 BKN080 OVC090 44.6 35.6 71% 41 29.87 0.0
07 23:55 SW 8 10.00 Mostly Cloudy FEW060 SCT070 BKN090 44.6 35.6 71% 41 29.86 0.0
07 23:35 SW 10 10.00 Light Rain SCT060 BKN075 44.6 35.6 71% 40 29.86 0.0
07 23:15 SW 8 10.00 Light Rain OVC060 44.6 35.6 71% 41 29.87 0.0
07 22:55 W 8 10.00 Light Rain OVC060 44.6 33.8 66% 41 29.86 0.0
07 22:35 W 6 10.00 Light Rain OVC060 46.4 33.8 62% 44 29.86 0.0
07 22:15 W 8 10.00 Light Rain BKN060 46.4 33.8 62% 43 29.86 0.0
07 21:55 W 12 10.00 Mostly Cloudy SCT060 BKN075 BKN095 46.4 32 57% 42 29.87 0.0
07 21:35 W 6 10.00 Overcast SCT060 SCT075 OVC090 46.4 32 57% 44 29.86 0.0
07 21:15 W 13 G 22 10.00 Light Rain FEW027 BKN065 BKN075 46.4 32 57% 41 29.85 0.0
07 20:55 W 10 10.00 Mostly Cloudy BKN065 48.2 28.4 46% 44 29.85 0.0
07 20:35 NW 12 10.00 Overcast FEW050 OVC065 48.2 28.4 46% 44 29.85 0.0
07 20:15 NW 21 G 25 10.00 Overcast and Breezy FEW050 OVC070 50 26.6 40% 44 29.85 0.0
07 19:55 W 12 10.00 Overcast OVC070 50 26.6 54.5 48.6 40% 46 29.84 0.0
07 19:35 W 9 10.00 Overcast FEW050 BKN070 OVC090 50 26.6 40% 47 29.84 0.0
07 19:15 W 12 10.00 Overcast FEW050 OVC060 50 26.6 40% 46 29.84 0.0
07 18:55 W 9 10.00 Overcast OVC060 51.8 28.4 41% 29.84 0.0
07 18:35 W 10 G 16 10.00 Overcast OVC060 51.8 26.6 38% 29.84 0.0
07 18:15 W 14 G 21 10.00 Overcast OVC065 51.8 26.6 38% 29.84 0.0
07 17:55 W 12 10.00 Overcast BKN070 OVC080 51.8 26.6 38% 29.84 0.0
07 17:35 W 14 10.00 Overcast BKN070 OVC080 51.8 26.6 38% 29.84 0.0
07 17:15 W 13 10.00 Mostly Cloudy BKN060 BKN080 51.8 26.6 38% 29.84 0.0
07 16:55 W 12 G 16 10.00 Mostly Cloudy SCT060 BKN070 BKN085 53.6 28.4 38% 29.84 0.0
07 16:35 W 7 10.00 Overcast SCT060 OVC070 53.6 28.4 38% 29.85 0.0
07 16:15 W 10 10.00 Overcast SCT060 BKN070 OVC080 51.8 28.4 41% 29.85 0.0
07 15:55 W 10 10.00 Overcast BKN060 OVC070 50 28.4 43% 46 29.86 0.0
07 15:35 W 10 10.00 Mostly Cloudy SCT060 BKN070 BKN080 50 28.4 43% 46 29.86 0.0
07 15:15 W 14 10.00 Overcast SCT050 OVC070 50 28.4 43% 45 29.87 0.0
07 14:55 W 12 10.00 Overcast FEW050 OVC080 50 28.4 43% 46 29.87 0.0
07 14:35 W 12 10.00 Overcast SCT050 BKN070 OVC080 50 28.4 43% 46 29.87 0.0
07 14:15 W 13 G 16 10.00 Overcast BKN050 BKN060 OVC080 48.2 30.2 50% 43 29.87 0.0
07 13:55 NW 9 10.00 Overcast SCT045 BKN050 OVC080 48.2 33.8 52.7 38.1 58% 45 29.88 0.0
07 13:35 Vrbl 5 10.00 Overcast FEW047 SCT060 OVC070 50 33.8 54% 49 29.88 0.0
07 13:15 NW 6 10.00 Overcast FEW042 SCT050 OVC070 48.2 33.8 58% 46 29.89 0.0
07 12:55 NW 7 10.00 Overcast SCT043 BKN055 OVC070 48.2 32 54% 46 29.89 0.0
07 12:35 NW 8 10.00 Overcast SCT049 BKN060 OVC065 50 32 50% 47 29.89 0.0
07 12:15 W 13 10.00 Overcast BKN049 OVC060 48.2 30.2 50% 43 29.89 0.0
07 11:55 NW 7 G 16 10.00 Overcast BKN049 BKN055 OVC070 50 30.2 47% 48 29.89 0.0
07 11:35 W 12 G 18 10.00 Mostly Cloudy SCT047 SCT060 BKN070 51.8 30.2 44% 29.89 0.0
07 11:15 W 8 10.00 Partly Cloudy SCT070 50 30.2 47% 47 29.89 0.0
07 10:55 W 6 10.00 Partly Cloudy SCT070 50 32 50% 48 29.89 0.0
07 10:35 W 9 10.00 Mostly Cloudy FEW060 BKN070 50 33.8 54% 47 29.89 0.0
07 10:15 N 3 10.00 Overcast OVC070 46.4 32 57% 29.89 0.0
07 09:55 Vrbl 2 10.00 Mostly Cloudy BKN070 46.4 32 57% 29.9 0.0
07 09:35 Vrbl 3 10.00 A Few Clouds FEW070 46.4 33.8 62% 29.9 0.0
07 09:15 Vrbl 2 10.00 Fair CLR 44.6 33.8 66% 29.9 0.0
07 08:55 Vrbl 2 10.00 Fair CLR 42.8 33.8 71% 29.9 0.0
07 08:35 Vrbl 1 10.00 Partly Cloudy SCT085 41 33.8 76% 29.9 0.0
07 08:15 E 2 10.00 Overcast OVC085 39.2 33.8 81% 29.9 0.0
07 07:55 E 3 10.00 Overcast OVC095 37.4 33.8 38.1 31.5 87% 29.9 0.0
07 07:35 SE 3 10.00 Overcast OVC095 37.4 33.8 87% 29.9 0.0
07 07:15 NE 1 10.00 Overcast OVC095 35.6 33.8 93% 29.9 0.0
07 06:55 NE 2 10.00 Overcast OVC095 35.6 32 87% 29.89 0.0
07 06:35 NE 2 10.00 Overcast OVC095 35.6 33.8 93% 29.88 0.0
07 06:15 SW 1 10.00 Overcast OVC095 35.6 32 87% 29.88 0.0
07 05:55 NE 2 10.00 Overcast OVC095 35.6 32 87% 29.88 0.0
07 05:35 NE 3 10.00 Overcast OVC095 33.8 32 93% 29.88 0.0
07 05:15 SE 2 10.00 Overcast OVC095 33.8 32 93% 29.88 0.0
07 04:55 E 2 10.00 Overcast OVC095 33.8 32 93% 29.89 0.0
07 04:35 N 2 10.00 Overcast SCT070 OVC095 33.8 32 93% 29.89 0.0
07 04:15 E 2 10.00 Overcast BKN070 OVC095 32 32 100% 29.89 0.0
07 03:55 E 1 10.00 Mostly Cloudy FEW070 BKN095 33.8 32 93% 29.89 0.0
07 03:35 S 1 10.00 Fair CLR 33.8 32 93% 29.89 0.0
07 03:15 E 1 10.00 A Few Clouds FEW060 FEW075 33.8 32 93% 29.89 0.0
07 02:55 NE 3 10.00 Mostly Cloudy BKN075 BKN100 33.8 32 93% 29.9 0.0
07 02:35 E 3 10.00 A Few Clouds FEW075 FEW100 35.6 32 87% 29.9 0.0
07 02:15 NE 2 10.00 Fair CLR 33.8 33.8 100% 29.9 0.0
07 01:55 E 1 10.00 A Few Clouds FEW100 35.6 32 49.5 34.2 87% 29.9 0.0
07 01:35 NE 1 10.00 Partly Cloudy SCT100 35.6 32 87% 29.9 0.0
07 01:15 E 1 10.00 Partly Cloudy SCT100 39.2 32 75% 29.9 0.0
07 00:55 SE 2 10.00 Partly Cloudy SCT100 39.2 32 75% 29.9 0.0
07 00:35 SE 6 10.00 Mostly Cloudy BKN110 39.2 32 75% 36 29.9 0.0
07 00:15 E 6 10.00 Mostly Cloudy FEW070 BKN110 42.8 32 66% 40 29.9 0.0
06 23:55 E 6 10.00 Overcast SCT048 BKN060 OVC070 42.8 33.8 71% 40 29.91 0.0
06 23:35 E 7 10.00 Overcast BKN050 OVC065 42.8 33.8 71% 39 29.91 0.0
06 23:15 NE 8 G 16 10.00 Overcast BKN065 OVC075 44.6 32 61% 41 29.91 0.0
06 22:55 N 13 10.00 Overcast OVC065 46.4 32 57% 41 29.91 0.0
06 22:35 NW 10 10.00 Overcast BKN065 OVC075 48.2 32 54% 44 29.9 0.0
06 22:15 Vrbl 1 10.00 Overcast OVC065 48.2 30.2 50% 29.89 0.0
06 21:55 W 3 10.00 Overcast OVC065 48.2 32 54% 29.89 0.0
06 21:35 SW 5 10.00 Overcast OVC075 46.4 32 57% 45 29.88 0.0
06 21:15 SW 5 10.00 Overcast BKN075 OVC090 46.4 32 57% 45 29.87 0.0
06 20:55 SW 5 10.00 Overcast SCT065 OVC090 46.4 32 57% 45 29.87 0.0
06 20:35 SW 3 10.00 Overcast BKN065 OVC090 48.2 32 54% 29.87 0.0
06 20:15 SW 3 10.00 Overcast BKN065 BKN075 OVC090 48.2 32 54% 29.87 0.0
06 19:55 SW 5 10.00 Overcast BKN065 OVC090 50 30.2 54.9 48.7 47% 49 29.87 0.0
06 19:35 W 7 10.00 Overcast BKN065 OVC090 50 26.6 40% 48 29.87 0.0
06 19:15 SW 6 10.00 Overcast BKN065 BKN075 OVC090 51.8 28.4 41% 29.87 0.0
06 18:55 W 7 10.00 Overcast BKN070 OVC085 51.8 28.4 41% 29.87 0.0
06 18:35 W 10 10.00 Overcast SCT060 OVC080 51.8 26.6 38% 29.88 0.0
06 18:15 W 9 10.00 Overcast BKN060 OVC080 51.8 26.6 38% 29.87 0.0
06 17:55 W 10 10.00 Overcast OVC070 51.8 28.4 41% 29.87 0.0
06 17:35 W 9 10.00 Overcast OVC070 51.8 26.6 38% 29.87 0.0
06 17:15 Vrbl 3 10.00 Overcast OVC070 51.8 26.6 38% 29.87 0.0
06 16:55 W 7 10.00 Overcast FEW060 OVC080 51.8 28.4 41% 29.87 0.0
06 16:35 W 13 G 16 10.00 Overcast FEW060 OVC080 53.6 28.4 38% 29.87 0.0
06 16:15 W 12 10.00 Overcast SCT060 OVC070 51.8 28.4 41% 29.88 0.0
06 15:55 Vrbl 2 10.00 Overcast OVC060 50 28.4 43% 29.88 0.0
06 15:35 SW 9 10.00 Overcast OVC060 50 28.4 43% 47 29.89 0.0
06 15:15 SW 5 10.00 Overcast SCT060 OVC070 50 28.4 43% 49 29.89 0.0
06 14:55 SW 7 10.00 Overcast OVC060 50 26.6 40% 48 29.89 0.0
06 14:35 Vrbl 3 10.00 Overcast SCT060 OVC070 50 26.6 40% 29.9 0.0
06 14:15 Vrbl 6 10.00 Overcast OVC060 50 26.6 40% 48 29.9 0.0
06 13:55 N 6 10.00 Overcast OVC060 50 26.6 51.6 39 40% 48 29.9 0.0
06 13:35 Vrbl 5 G 17 10.00 Mostly Cloudy BKN060 50 26.6 40% 49 29.91 0.0
06 13:15 NW 9 10.00 A Few Clouds FEW050 FEW060 50 30.2 47% 47 29.9 0.0
06 12:55 N 10 10.00 Partly Cloudy SCT044 SCT055 48.2 28.4 46% 44 29.91 0.0
06 12:35 Vrbl 6 10.00 A Few Clouds FEW042 48.2 30.2 50% 46 29.91 0.0
06 12:15 Vrbl 7 10.00 Partly Cloudy FEW040 SCT047 48.2 30.2 50% 46 29.91 0.0
06 11:55 NW 9 10.00 Mostly Cloudy SCT042 BKN047 48.2 30.2 50% 45 29.92 0.0
06 11:35 N 7 10.00 Overcast OVC040 46.4 30.2 53% 43 29.91 0.0
06 11:15 Vrbl 7 10.00 Overcast OVC042 46.4 30.2 53% 43 29.91 0.0
06 10:55 NW 10 10.00 Mostly Cloudy FEW034 BKN042 46.4 30.2 53% 42 29.91 0.0
06 10:35 N 9 10.00 Mostly Cloudy FEW032 BKN042 46.4 30.2 53% 42 29.9 0.0
06 10:15 N 10 10.00 Overcast OVC042 44.6 32 61% 40 29.9 0.0
06 09:55 N 8 10.00 Overcast OVC042 42.8 32 66% 39 29.9 0.0
06 09:35 N 8 10.00 Overcast OVC044 42.8 32 66% 39 29.89 0.0
06 09:15 N 9 10.00 Mostly Cloudy FEW037 BKN044 42.8 32 66% 38 29.89 0.0
06 08:55 NE 6 10.00 A Few Clouds FEW044 41 32 70% 38 29.88 0.0
06 08:35 N 8 10.00 Fair CLR 41 30.2 66% 36 29.88 0.0
06 08:15 NE 9 10.00 Fair CLR 39.2 30.2 70% 34 29.87 0.0
06 07:55 N 8 10.00 Fair CLR 39.2 30.2 41.7 35.4 70% 34 29.87 0.0
Date Time (edt) Wind (mph) Vis. (mi.) Weather Sky Cond. Air Dwpt Max. Min. Relative Humidity Wind Chill (°F) Heat Index (°F) altimeter (in) sea level (mb) 1 hr 3 hr 6 hr
6 hour
Temperature (ºF) Pressure Precipitation (in)